Kzyl-Orda, Kazakhstan
Current Conditions -  °F | °C
As of 2:00 AM on Saturday 25 Oct 2014 (Local Time) from UAOO Reporting Station
Broken Clouds Broken Clouds  
Wind Chill: 31°   Ceiling: 1600
Heat Index: 41°   Visibility: 6mi
Dew Point: 37°   Wind: 22mph
Humidity: 87%   Direction: 340°NNW
Pressure: 29.97"   Gusts: NA
Location:  44.87°N, 65.48°E
Report Text: UAOO 242100Z 34010MPS 9999 BKN016CB 05/03 Q1015 NOSIG RMKQFE750/1000
Loading
Personal Weather Stations






























Interactive Weather Map
Tropical Storm Tracking
New forecast layout! Learn more

10-Day Weather Forecast

Advertisements
Track Severe Weather on mobile